Time;durP1;ratioP1;P1;durP2;ratioP2;P2;SDS_P1;SDS_P2;PMS_P1;PMS_P2;Temp;Humidity;BMP_temperature;BMP_pressure;BME280_temperature;BME280_humidity;BME280_pressure;Samples;Min_cycle;Max_cycle;Signal;HPM_P1;HPM_P2
2021/08/17 00:00:09;;;;;;;;;;;;;;;24.88;56.13;100363.50;2074588;28;20003;-69
2021/08/17 00:01:10;;;;;;;;;;;;;;;24.89;56.35;100358.84;2075885;28;19921;-69
2021/08/17 00:02:10;;;;;;;;;;;;;;;24.89;56.39;100362.47;2075755;28;19925;-69
2021/08/17 00:03:11;;;;;;;;;;;;;;;24.89;56.25;100358.84;2075615;28;20367;-70
2021/08/17 00:04:11;;;;;;;;;;;;;;;24.89;56.08;100359.72;2073937;28;19974;-70
2021/08/17 00:05:12;;;;;;;;;;;;;;;24.89;56.25;100367.09;2074469;28;19921;-71
2021/08/17 00:06:12;;;;;;;;;;;;;;;24.89;56.30;100358.84;2076050;28;20596;-70
2021/08/17 00:07:12;;;;;;;;;;;;;;;24.88;56.26;100359.88;2081443;28;20225;-69
2021/08/17 00:08:13;;;;;;;;;;;;;;;24.88;56.42;100354.38;2083475;28;19994;-70
2021/08/17 00:09:14;;;;;;;;;;;;;;;24.89;56.33;100361.59;2071309;28;19921;-70
2021/08/17 00:10:14;;;;;;;;;;;;;;;24.88;56.31;100359.88;2074733;28;19920;-70
2021/08/17 00:11:14;;;;;;;;;;;;;;;24.88;56.23;100359.88;2075212;28;20006;-70
2021/08/17 00:12:15;;;;;;;;;;;;;;;24.89;56.30;100358.84;2073603;28;19944;-70
2021/08/17 00:13:15;;;;;;;;;;;;;;;24.88;56.47;100355.22;2076263;28;20020;-71
2021/08/17 00:14:15;;;;;;;;;;;;;;;24.88;56.34;100365.41;2081228;28;19963;-70
2021/08/17 00:15:16;;;;;;;;;;;;;;;24.89;56.35;100358.84;2079270;28;19925;-71
2021/08/17 00:16:16;;;;;;;;;;;;;;;24.88;56.40;100360.75;2074851;28;20450;-70
2021/08/17 00:17:17;;;;;;;;;;;;;;;24.86;56.40;100354.53;2075567;28;19920;-71
2021/08/17 00:18:17;;;;;;;;;;;;;;;24.86;56.49;100354.53;2074799;28;20029;-71
2021/08/17 00:19:17;;;;;;;;;;;;;;;24.87;56.47;100358.19;2076043;28;19931;-71
2021/08/17 00:20:18;;;;;;;;;;;;;;;24.87;56.35;100356.28;2075011;28;19955;-71
2021/08/17 00:21:18;;;;;;;;;;;;;;;24.88;56.41;100359.88;2075201;28;19924;-70
2021/08/17 00:22:22;;;;;;;;;;;;;;;24.87;56.63;100352.66;2075718;28;19936;-71
2021/08/17 00:23:23;;;;;;;;;;;;;;;24.88;56.54;100354.38;2073838;28;19910;-70
2021/08/17 00:24:23;;;;;;;;;;;;;;;24.87;56.51;100353.53;2076283;28;19921;-70
2021/08/17 00:25:23;;;;;;;;;;;;;;;24.87;56.47;100352.66;2077484;28;19917;-70
2021/08/17 00:26:24;;;;;;;;;;;;;;;24.89;56.45;100350.56;2075076;28;19943;-70
2021/08/17 00:27:24;;;;;;;;;;;;;;;24.87;56.51;100349.91;2075406;28;20046;-70
2021/08/17 00:28:24;;;;;;;;;;;;;;;24.86;56.77;100345.41;2075626;28;20638;-71
2021/08/17 00:29:24;;;;;;;;;;;;;;;24.87;56.74;100352.66;2083168;28;20314;-71
2021/08/17 00:30:25;;;;;;;;;;;;;;;24.88;56.65;100354.38;2081941;28;19963;-70
2021/08/17 00:31:25;;;;;;;;;;;;;;;24.87;56.55;100347.16;2075404;28;20296;-71
2021/08/17 00:32:26;;;;;;;;;;;;;;;24.86;56.70;100346.28;2075353;28;20379;-70
2021/08/17 00:33:26;;;;;;;;;;;;;;;24.87;56.69;100347.16;2076075;28;19956;-71
2021/08/17 00:34:26;;;;;;;;;;;;;;;24.86;56.77;100345.41;2075279;28;19921;-70
2021/08/17 00:35:26;;;;;;;;;;;;;;;24.86;56.84;100339.91;2073970;28;20402;-70
2021/08/17 00:36:30;;;;;;;;;;;;;;;24.88;56.55;100344.19;2075643;28;19920;-72
2021/08/17 00:37:31;;;;;;;;;;;;;;;24.86;56.88;100345.41;2074990;28;20287;-71
2021/08/17 00:38:31;;;;;;;;;;;;;;;24.87;56.80;100347.16;2075392;28;19913;-70
2021/08/17 00:39:31;;;;;;;;;;;;;;;24.86;56.76;100340.75;2074421;28;20357;-70
2021/08/17 00:40:32;;;;;;;;;;;;;;;24.86;56.73;100337.16;2075158;28;20515;-71
2021/08/17 00:41:33;;;;;;;;;;;;;;;24.87;56.82;100341.63;2074793;28;21137;-71
2021/08/17 00:42:44;;;;;;;;;;;;;;;24.86;56.89;100339.91;2073309;28;20521;-71
2021/08/17 00:43:44;;;;;;;;;;;;;;;24.86;56.95;100334.38;2076025;28;20371;-71
2021/08/17 00:44:45;;;;;;;;;;;;;;;24.86;56.96;100345.41;2074852;28;20660;-71
2021/08/17 00:45:45;;;;;;;;;;;;;;;24.86;57.01;100345.41;2071104;28;20051;-71
2021/08/17 00:46:46;;;;;;;;;;;;;;;24.86;57.08;100334.38;2069586;28;20537;-71
2021/08/17 00:47:46;;;;;;;;;;;;;;;24.87;57.02;100336.13;2075224;28;19913;-71
2021/08/17 00:48:47;;;;;;;;;;;;;;;24.86;56.99;100338.00;2075138;28;19944;-71
2021/08/17 00:49:47;;;;;;;;;;;;;;;24.85;57.01;100332.69;2074565;28;19936;-71
2021/08/17 00:50:47;;;;;;;;;;;;;;;24.86;57.25;100328.88;2076471;28;20665;-71
2021/08/17 00:51:49;;;;;;;;;;;;;;;24.86;57.09;100334.38;2075083;28;19925;-71
2021/08/17 00:52:53;;;;;;;;;;;;;;;24.85;57.09;100332.69;2077593;28;20654;-70
2021/08/17 00:53:54;;;;;;;;;;;;;;;24.85;57.18;100332.69;2075463;28;19955;-70
2021/08/17 00:54:54;;;;;;;;;;;;;;;24.84;57.39;100334.56;2075212;28;19912;-69
2021/08/17 00:55:55;;;;;;;;;;;;;;;24.86;57.26;100334.38;2073698;28;20019;-70
2021/08/17 00:56:55;;;;;;;;;;;;;;;24.85;57.20;100329.94;2076214;28;19964;-70
2021/08/17 00:57:56;;;;;;;;;;;;;;;24.86;57.20;100334.38;2074807;28;19913;-70
2021/08/17 00:58:57;;;;;;;;;;;;;;;24.84;57.44;100334.56;2074455;28;19912;-70
2021/08/17 00:59:57;;;;;;;;;;;;;;;24.86;57.35;100337.16;2075017;28;19917;-70
2021/08/17 01:00:57;;;;;;;;;;;;;;;24.85;57.38;100338.19;2073124;28;19932;-70
2021/08/17 01:01:58;;;;;;;;;;;;;;;24.85;57.31;100332.69;2075736;28;19917;-70
2021/08/17 01:02:58;;;;;;;;;;;;;;;24.85;57.23;100339.06;2076067;28;19920;-70
2021/08/17 01:03:59;;;;;;;;;;;;;;;24.86;57.45;100328.88;2073217;28;19960;-72
2021/08/17 01:05:00;;;;;;;;;;;;;;;24.87;57.32;100331.47;2080107;28;20411;-69
2021/08/17 01:06:00;;;;;;;;;;;;;;;24.86;57.37;100334.38;2074496;28;19921;-69
2021/08/17 01:07:05;;;;;;;;;;;;;;;24.86;57.25;100328.88;2074401;28;20034;-69
2021/08/17 01:08:06;;;;;;;;;;;;;;;24.86;57.42;100329.72;2075681;28;19921;-69
2021/08/17 01:09:10;;;;;;;;;;;;;;;24.87;57.77;100331.47;2072947;28;19931;-70
2021/08/17 01:10:11;;;;;;;;;;;;;;;24.88;57.72;100329.56;2075950;28;20600;-70
2021/08/17 01:11:11;;;;;;;;;;;;;;;24.88;58.16;100329.56;2075088;28;19920;-70
2021/08/17 01:12:12;;;;;;;;;;;;;;;24.87;58.09;100331.47;2081340;28;19927;-69
2021/08/17 01:13:12;;;;;;;;;;;;;;;24.88;58.14;100332.31;2082737;28;20785;-69
2021/08/17 01:14:21;;;;;;;;;;;;;;;24.88;58.04;100335.94;2074464;28;20311;-70
2021/08/17 01:15:21;;;;;;;;;;;;;;;24.86;58.41;100323.38;2075574;28;19942;-69
2021/08/17 01:16:22;;;;;;;;;;;;;;;24.87;58.45;100336.13;2077442;28;19928;-70
2021/08/17 01:17:22;;;;;;;;;;;;;;;24.87;58.40;100330.59;2075659;28;19936;-69
2021/08/17 01:18:23;;;;;;;;;;;;;;;24.86;58.45;100337.16;2076677;28;20276;-69
2021/08/17 01:19:24;;;;;;;;;;;;;;;24.87;58.47;100336.97;2076611;28;19954;-69
2021/08/17 01:20:25;;;;;;;;;;;;;;;24.86;58.63;100328.88;2077967;28;19908;-69
2021/08/17 01:21:26;;;;;;;;;;;;;;;24.86;58.40;100331.63;2071870;28;20415;-70
2021/08/17 01:22:27;;;;;;;;;;;;;;;24.86;58.75;100339.91;2078595;28;20374;-69
2021/08/17 01:23:30;;;;;;;;;;;;;;;24.86;58.45;100339.91;2076059;28;19927;-69
2021/08/17 01:24:31;;;;;;;;;;;;;;;24.87;58.49;100344.41;2076417;28;19921;-69
2021/08/17 01:25:33;;;;;;;;;;;;;;;24.86;58.44;100331.63;2078198;28;19927;-69
2021/08/17 01:26:33;;;;;;;;;;;;;;;24.85;58.66;100335.44;2075157;28;20735;-69
2021/08/17 01:27:33;;;;;;;;;;;;;;;24.86;58.52;100340.75;2073135;28;20324;-69
2021/08/17 01:28:34;;;;;;;;;;;;;;;24.85;58.82;100332.69;2076767;28;19916;-69
2021/08/17 01:29:34;;;;;;;;;;;;;;;24.85;58.80;100332.69;2074250;28;19986;-70
2021/08/17 01:30:35;;;;;;;;;;;;;;;24.85;58.62;100339.06;2078499;28;19916;-69
2021/08/17 01:31:35;;;;;;;;;;;;;;;24.84;58.70;100331.81;2076306;28;20352;-69
2021/08/17 01:32:35;;;;;;;;;;;;;;;24.84;58.60;100336.47;2075886;28;20004;-69
2021/08/17 01:33:36;;;;;;;;;;;;;;;24.84;58.63;100337.31;2078521;28;19916;-70
2021/08/17 01:34:36;;;;;;;;;;;;;;;24.84;58.85;100329.03;2074859;28;19916;-69
2021/08/17 01:35:36;;;;;;;;;;;;;;;24.84;58.62;100325.44;2075182;28;20007;-69
2021/08/17 01:36:37;;;;;;;;;;;;;;;24.84;58.67;100325.44;2076626;28;19978;-69
2021/08/17 01:37:37;;;;;;;;;;;;;;;24.84;58.66;100329.03;2074987;28;20456;-69
2021/08/17 01:38:47;;;;;;;;;;;;;;;24.84;58.62;100323.53;2073408;28;20418;-69
2021/08/17 01:40:00;;;;;;;;;;;;;;;24.83;58.60;100335.63;2071784;28;19920;-70
2021/08/17 01:41:01;;;;;;;;;;;;;;;24.85;58.85;100332.69;2075035;28;19921;-69
2021/08/17 01:42:01;;;;;;;;;;;;;;;24.84;58.82;100325.44;2076144;28;20082;-69
2021/08/17 01:43:01;;;;;;;;;;;;;;;24.83;58.70;100323.75;2077371;28;19921;-69
2021/08/17 01:44:14;;;;;;;;;;;;;;;24.84;58.92;100325.44;2075328;28;19956;-70
2021/08/17 01:45:16;;;;;;;;;;;;;;;24.84;59.01;100326.28;2073113;28;19956;-69
2021/08/17 01:46:16;;;;;;;;;;;;;;;24.83;58.88;100324.59;2074112;28;19912;-69
2021/08/17 01:47:16;;;;;;;;;;;;;;;24.84;58.93;100325.44;2071898;28;20019;-69
2021/08/17 01:48:17;;;;;;;;;;;;;;;24.83;58.93;100318.22;2073750;28;20065;-69
2021/08/17 01:49:21;;;;;;;;;;;;;;;24.84;58.97;100326.28;2075225;28;19943;-70
2021/08/17 01:50:21;;;;;;;;;;;;;;;24.85;58.74;100324.41;2075698;28;19921;-69
2021/08/17 01:51:22;;;;;;;;;;;;;;;24.84;58.88;100318.03;2076346;28;19928;-69
2021/08/17 01:52:22;;;;;;;;;;;;;;;24.84;58.96;100317.16;2074620;28;19920;-69
2021/08/17 01:53:23;;;;;;;;;;;;;;;24.83;58.92;100324.59;2077487;28;19925;-69
2021/08/17 01:54:24;;;;;;;;;;;;;;;24.85;59.00;100316.16;2075760;28;19964;-69
2021/08/17 01:55:24;;;;;;;;;;;;;;;24.84;58.87;100319.91;2072404;28;19920;-68
2021/08/17 01:56:24;;;;;;;;;;;;;;;24.83;58.87;100318.22;2074623;28;20252;-70
2021/08/17 01:57:25;;;;;;;;;;;;;;;24.84;58.93;100314.41;2073262;28;19921;-70
2021/08/17 01:58:25;;;;;;;;;;;;;;;24.83;58.96;100319.06;2071964;28;20015;-70
2021/08/17 01:59:26;;;;;;;;;;;;;;;24.84;59.03;100314.41;2074073;28;20327;-70
2021/08/17 02:00:26;;;;;;;;;;;;;;;24.84;59.09;100322.69;2076311;28;19927;-70
2021/08/17 02:01:26;;;;;;;;;;;;;;;24.83;58.93;100320.97;2075536;28;20544;-70
2021/08/17 02:02:27;;;;;;;;;;;;;;;24.84;59.00;100314.41;2076343;28;20276;-70
2021/08/17 02:03:27;;;;;;;;;;;;;;;24.84;58.83;100319.91;2075567;28;19955;-70
2021/08/17 02:04:28;;;;;;;;;;;;;;;24.84;59.09;100322.69;2077205;28;20460;-70
2021/08/17 02:05:28;;;;;;;;;;;;;;;24.83;59.10;100310.81;2074960;28;20028;-70
2021/08/17 02:06:29;;;;;;;;;;;;;;;24.84;58.85;100325.44;2077091;28;19921;-70
2021/08/17 02:07:29;;;;;;;;;;;;;;;24.84;58.96;100311.66;2075645;28;19943;-69
2021/08/17 02:08:29;;;;;;;;;;;;;;;24.83;58.90;100320.97;2074854;28;19921;-69
2021/08/17 02:09:30;;;;;;;;;;;;;;;24.83;58.95;100315.47;2076559;28;19931;-69
2021/08/17 02:10:31;;;;;;;;;;;;;;;24.83;58.94;100318.22;2078166;28;20416;-70
2021/08/17 02:11:31;;;;;;;;;;;;;;;24.81;59.19;100316.47;2075963;28;20663;-69
2021/08/17 02:12:31;;;;;;;;;;;;;;;24.83;59.17;100312.72;2074667;28;19921;-70
2021/08/17 02:13:32;;;;;;;;;;;;;;;24.84;59.17;100319.91;2083152;28;19920;-69
2021/08/17 02:14:33;;;;;;;;;;;;;;;24.81;59.04;100322.00;2080868;28;20035;-69
2021/08/17 02:15:33;;;;;;;;;;;;;;;24.83;58.98;100320.97;2076564;28;19916;-70
2021/08/17 02:16:34;;;;;;;;;;;;;;;24.83;58.96;100315.47;2071666;28;19921;-69
2021/08/17 02:17:34;;;;;;;;;;;;;;;24.83;59.13;100318.22;2073942;28;20265;-69
2021/08/17 02:18:37;;;;;;;;;;;;;;;24.83;58.91;100329.25;2076449;28;20386;-69
2021/08/17 02:19:38;;;;;;;;;;;;;;;24.83;59.05;100323.75;2075111;28;20984;-69
2021/08/17 02:20:38;;;;;;;;;;;;;;;24.83;58.93;100318.22;2068798;28;19921;-69
2021/08/17 02:21:38;;;;;;;;;;;;;;;24.84;59.01;100322.69;2076465;28;19964;-69
2021/08/17 02:22:39;;;;;;;;;;;;;;;24.83;58.87;100323.75;2075264;28;20173;-69
2021/08/17 02:23:39;;;;;;;;;;;;;;;24.83;59.09;100323.75;2076724;28;19999;-70
2021/08/17 02:24:40;;;;;;;;;;;;;;;24.84;59.08;100319.91;2073178;28;19920;-69
2021/08/17 02:25:41;;;;;;;;;;;;;;;24.83;58.91;100323.75;2075958;28;19951;-69
2021/08/17 02:26:41;;;;;;;;;;;;;;;24.83;58.97;100318.22;2076403;28;19994;-70
2021/08/17 02:27:41;;;;;;;;;;;;;;;24.82;59.08;100317.38;2075389;28;19913;-70
2021/08/17 02:28:42;;;;;;;;;;;;;;;24.83;59.09;100329.25;2075611;28;19917;-70
2021/08/17 02:29:42;;;;;;;;;;;;;;;24.83;59.17;100323.75;2076802;28;19913;-70
2021/08/17 02:30:42;;;;;;;;;;;;;;;24.83;59.08;100334.75;2075211;28;20432;-70
2021/08/17 02:31:43;;;;;;;;;;;;;;;24.81;59.14;100324.75;2074613;28;19921;-70
2021/08/17 02:32:43;;;;;;;;;;;;;;;24.84;59.08;100325.44;2076641;28;20367;-70
2021/08/17 02:33:43;;;;;;;;;;;;;;;24.81;59.12;100327.50;2072411;28;19921;-70
2021/08/17 02:34:43;;;;;;;;;;;;;;;24.83;59.01;100318.22;2076424;28;19921;-70
2021/08/17 02:35:44;;;;;;;;;;;;;;;24.83;58.94;100335.63;2079607;28;19916;-70
2021/08/17 02:36:44;;;;;;;;;;;;;;;24.83;58.90;100329.25;2074027;28;19914;-70
2021/08/17 02:37:45;;;;;;;;;;;;;;;24.83;59.04;100329.25;2076452;28;19951;-69
2021/08/17 02:38:45;;;;;;;;;;;;;;;24.83;59.02;100323.75;2075516;28;20299;-69
2021/08/17 02:39:45;;;;;;;;;;;;;;;24.81;58.97;100327.50;2092147;28;20589;-70
2021/08/17 02:40:45;;;;;;;;;;;;;;;24.81;59.05;100327.50;2090893;28;20025;-70
2021/08/17 02:41:46;;;;;;;;;;;;;;;24.81;59.00;100322.00;2075244;28;19925;-69
2021/08/17 02:42:46;;;;;;;;;;;;;;;24.81;59.07;100330.28;2076159;28;19920;-70
2021/08/17 02:43:46;;;;;;;;;;;;;;;24.81;58.79;100327.50;2075448;28;20480;-69
2021/08/17 02:45:11;;;;;;;;;;;;;;;24.80;58.91;100320.28;2076559;28;19925;-69
2021/08/17 02:46:12;;;;;;;;;;;;;;;24.81;59.12;100321.16;2076276;28;19913;-70
2021/08/17 02:47:12;;;;;;;;;;;;;;;24.81;58.92;100323.91;2074869;28;19921;-70
2021/08/17 02:48:12;;;;;;;;;;;;;;;24.81;59.08;100324.75;2076997;28;19909;-70
2021/08/17 02:49:13;;;;;;;;;;;;;;;24.81;58.89;100322.00;2072086;28;20372;-70
2021/08/17 02:50:13;;;;;;;;;;;;;;;24.81;58.87;100322.00;2075565;28;19915;-69
2021/08/17 02:51:15;;;;;;;;;;;;;;;24.81;58.97;100327.50;2071600;28;19917;-70
2021/08/17 02:53:53;;;;;;;;;;;;;;;24.80;59.05;100331.31;2073494;28;19925;-70
2021/08/17 02:54:54;;;;;;;;;;;;;;;24.81;59.01;100326.66;2075922;28;19921;-70
2021/08/17 02:55:54;;;;;;;;;;;;;;;24.81;59.18;100321.16;2075109;28;19916;-69
2021/08/17 02:56:54;;;;;;;;;;;;;;;24.80;59.00;100325.81;2076424;28;20387;-70
2021/08/17 02:57:56;;;;;;;;;;;;;;;24.80;59.04;100317.53;2072597;28;19931;-70
2021/08/17 02:58:56;;;;;;;;;;;;;;;24.80;59.25;100324.97;2076034;28;19920;-70
2021/08/17 02:59:56;;;;;;;;;;;;;;;24.79;59.05;100329.63;2074766;28;20128;-69
2021/08/17 03:00:57;;;;;;;;;;;;;;;24.79;59.01;100324.09;2077426;28;19927;-69
2021/08/17 03:03:35;;;;;;;;;;;;;;;24.79;59.16;100329.63;2077479;28;20023;-69
2021/08/17 03:04:36;;;;;;;;;;;;;;;24.80;58.95;100328.56;2075908;28;19913;-69
2021/08/17 03:05:52;;;;;;;;;;;;;;;24.81;58.99;100326.66;2072972;28;20698;-69
2021/08/17 03:06:52;;;;;;;;;;;;;;;24.78;58.88;100316.84;2074704;28;20212;-70
2021/08/17 03:07:54;;;;;;;;;;;;;;;24.79;58.89;100326.88;2069827;28;20022;-69
2021/08/17 03:08:54;;;;;;;;;;;;;;;24.79;58.91;100324.09;2074270;28;20015;-70
2021/08/17 03:09:54;;;;;;;;;;;;;;;24.79;59.07;100328.72;2075854;28;20387;-69
2021/08/17 03:10:55;;;;;;;;;;;;;;;24.79;59.12;100324.09;2073270;28;19962;-69
2021/08/17 03:12:17;;;;;;;;;;;;;;;24.79;59.09;100335.13;2075230;28;19939;-69
2021/08/17 03:13:17;;;;;;;;;;;;;;;24.80;59.27;100325.81;2077272;28;19924;-69
2021/08/17 03:14:17;;;;;;;;;;;;;;;24.79;59.19;100329.63;2075087;28;19915;-70
2021/08/17 03:15:18;;;;;;;;;;;;;;;24.80;59.25;100327.72;2084520;28;20299;-70
2021/08/17 03:16:18;;;;;;;;;;;;;;;24.79;59.06;100324.09;2080555;28;19982;-70
2021/08/17 03:17:19;;;;;;;;;;;;;;;24.78;59.17;100316.84;2076306;28;19920;-70
2021/08/17 03:18:20;;;;;;;;;;;;;;;24.78;59.21;100322.38;2075526;28;19943;-70
2021/08/17 03:19:20;;;;;;;;;;;;;;;24.79;59.08;100329.63;2074546;28;19951;-70
2021/08/17 03:20:20;;;;;;;;;;;;;;;24.78;59.22;100327.88;2076368;28;19923;-70
2021/08/17 03:21:21;;;;;;;;;;;;;;;24.78;59.16;100327.03;2074593;28;20015;-70
2021/08/17 03:22:21;;;;;;;;;;;;;;;24.79;59.22;100317.72;2075179;28;19986;-70
2021/08/17 03:23:22;;;;;;;;;;;;;;;24.78;59.24;100327.88;2071143;28;19923;-70
2021/08/17 03:24:22;;;;;;;;;;;;;;;24.78;59.22;100330.66;2076366;28;20027;-70
2021/08/17 03:25:23;;;;;;;;;;;;;;;24.79;59.11;100332.38;2076079;28;19942;-70
2021/08/17 03:26:43;;;;;;;;;;;;;;;24.78;59.15;100333.41;2071529;28;20016;-70
2021/08/17 03:27:43;;;;;;;;;;;;;;;24.78;59.23;100325.13;2073726;28;20623;-70
2021/08/17 03:28:50;;;;;;;;;;;;;;;24.79;59.19;100329.63;2074824;28;19912;-71
2021/08/17 03:29:50;;;;;;;;;;;;;;;24.79;59.29;100325.97;2076566;28;19921;-70
2021/08/17 03:30:51;;;;;;;;;;;;;;;24.78;59.26;100325.13;2071720;28;19960;-70
2021/08/17 03:31:51;;;;;;;;;;;;;;;24.77;59.23;100328.94;2072374;28;20717;-70
2021/08/17 03:32:52;;;;;;;;;;;;;;;24.79;59.36;100328.72;2077190;28;19924;-70
2021/08/17 03:33:52;;;;;;;;;;;;;;;24.78;59.24;100327.88;2074257;28;19921;-70
2021/08/17 03:34:53;;;;;;;;;;;;;;;24.78;59.26;100327.88;2076607;28;19921;-70
2021/08/17 03:35:53;;;;;;;;;;;;;;;24.78;59.13;100322.38;2074701;28;19921;-70
2021/08/17 03:36:53;;;;;;;;;;;;;;;24.78;59.20;100316.00;2077262;28;20670;-69
2021/08/17 03:37:54;;;;;;;;;;;;;;;24.78;59.38;100321.53;2074781;28;19947;-70
2021/08/17 03:38:54;;;;;;;;;;;;;;;24.78;59.36;100319.63;2075293;28;20055;-70
2021/08/17 03:39:57;;;;;;;;;;;;;;;24.78;59.22;100322.38;2075680;28;19927;-70
2021/08/17 03:40:58;;;;;;;;;;;;;;;24.78;59.41;100322.38;2076355;28;20245;-70
2021/08/17 03:41:58;;;;;;;;;;;;;;;24.77;59.38;100326.19;2074872;28;19955;-70
2021/08/17 03:42:58;;;;;;;;;;;;;;;24.77;59.39;100319.81;2076766;28;20373;-70
2021/08/17 03:43:59;;;;;;;;;;;;;;;24.78;59.20;100321.53;2075565;28;19917;-69
2021/08/17 03:44:59;;;;;;;;;;;;;;;24.78;59.24;100321.53;2076300;28;20390;-69
2021/08/17 03:45:59;;;;;;;;;;;;;;;24.77;59.12;100320.66;2076145;28;20661;-68
2021/08/17 03:47:00;;;;;;;;;;;;;;;24.77;59.33;100323.44;2071873;28;19921;-69
2021/08/17 03:48:00;;;;;;;;;;;;;;;24.77;59.17;100314.31;2073832;28;19920;-68
2021/08/17 03:49:00;;;;;;;;;;;;;;;24.77;59.37;100320.66;2082212;28;19922;-69
2021/08/17 03:50:01;;;;;;;;;;;;;;;24.77;59.21;100320.66;2081676;28;19940;-69
2021/08/17 03:51:01;;;;;;;;;;;;;;;24.77;59.06;100317.91;2075737;28;19920;-69
2021/08/17 03:52:02;;;;;;;;;;;;;;;24.77;59.33;100317.91;2073988;28;20335;-68
2021/08/17 03:53:02;;;;;;;;;;;;;;;24.78;59.16;100319.63;2075208;28;20019;-69
2021/08/17 03:54:02;;;;;;;;;;;;;;;24.77;59.31;100319.81;2074650;28;19974;-69
2021/08/17 03:55:03;;;;;;;;;;;;;;;24.78;59.21;100318.75;2076579;28;20461;-69
2021/08/17 03:56:03;;;;;;;;;;;;;;;24.78;59.33;100316.00;2077431;28;20252;-72
2021/08/17 03:57:04;;;;;;;;;;;;;;;24.78;59.39;100316.00;2077047;28;19927;-71
2021/08/17 03:58:04;;;;;;;;;;;;;;;24.77;59.38;100314.31;2078434;28;19921;-70
2021/08/17 03:59:04;;;;;;;;;;;;;;;24.78;59.33;100316.84;2076170;28;20007;-70
2021/08/17 04:00:07;;;;;;;;;;;;;;;24.78;59.21;100316.00;2073774;28;19921;-70
2021/08/17 04:01:08;;;;;;;;;;;;;;;24.77;59.36;100315.16;2074365;28;20243;-70
2021/08/17 04:02:08;;;;;;;;;;;;;;;24.78;59.40;100307.72;2075033;28;19963;-70
2021/08/17 04:03:08;;;;;;;;;;;;;;;24.78;59.43;100316.84;2074336;28;19967;-70
2021/08/17 04:04:08;;;;;;;;;;;;;;;24.78;59.56;100319.63;2075857;28;19990;-70
2021/08/17 04:05:09;;;;;;;;;;;;;;;24.77;59.75;100312.41;2074641;28;20633;-70
2021/08/17 04:06:09;;;;;;;;;;;;;;;24.77;59.66;100315.16;2074763;28;20006;-70
2021/08/17 04:07:10;;;;;;;;;;;;;;;24.78;59.86;100313.25;2070566;28;19921;-69
2021/08/17 04:08:10;;;;;;;;;;;;;;;24.77;60.08;100320.66;2073768;28;19924;-70
2021/08/17 04:09:11;;;;;;;;;;;;;;;24.77;60.16;100309.63;2074018;28;20196;-70
2021/08/17 04:10:11;;;;;;;;;;;;;;;24.77;60.21;100314.31;2076155;28;19921;-69
2021/08/17 04:11:11;;;;;;;;;;;;;;;24.77;60.21;100320.66;2074459;28;19999;-70
2021/08/17 04:12:11;;;;;;;;;;;;;;;24.77;60.33;100315.16;2075362;28;19917;-69
2021/08/17 04:14:49;;;;;;;;;;;;;;;24.77;60.66;100317.91;2070170;28;20015;-70
2021/08/17 04:15:50;;;;;;;;;;;;;;;24.77;60.70;100320.66;2070428;28;19921;-69
2021/08/17 04:17:12;;;;;;;;;;;;;;;24.76;60.57;100324.44;2076135;28;20319;-70
2021/08/17 04:18:12;;;;;;;;;;;;;;;24.76;60.64;100323.59;2074014;28;19921;-69
2021/08/17 04:19:12;;;;;;;;;;;;;;;24.76;60.67;100323.59;2079649;28;19920;-70
2021/08/17 04:20:13;;;;;;;;;;;;;;;24.75;60.62;100317.22;2078056;28;19921;-69
2021/08/17 04:21:13;;;;;;;;;;;;;;;24.75;60.58;100317.22;2074034;28;19924;-70
2021/08/17 04:22:13;;;;;;;;;;;;;;;24.76;60.62;100318.09;2074202;28;19927;-69
2021/08/17 04:23:32;;;;;;;;;;;;;;;24.75;60.55;100322.75;2071543;28;19928;-70
2021/08/17 04:25:04;;;;;;;;;;;;;;;24.74;60.73;100321.03;2073628;28;19927;-70
2021/08/17 04:26:04;;;;;;;;;;;;;;;24.75;60.76;100320.00;2073174;28;19920;-70
2021/08/17 04:27:04;;;;;;;;;;;;;;;24.75;60.76;100322.75;2072885;28;19963;-72
2021/08/17 04:28:05;;;;;;;;;;;;;;;24.75;60.56;100321.91;2075468;28;20192;-70
2021/08/17 04:29:05;;;;;;;;;;;;;;;24.76;60.68;100318.94;2074124;28;19983;-70
2021/08/17 04:30:06;;;;;;;;;;;;;;;24.76;60.54;100327.19;2076572;28;19928;-70
2021/08/17 04:31:06;;;;;;;;;;;;;;;24.76;60.41;100326.34;2077070;28;19920;-69
2021/08/17 04:32:07;;;;;;;;;;;;;;;24.75;60.55;100325.50;2074355;28;20008;-70
2021/08/17 04:33:07;;;;;;;;;;;;;;;24.75;60.38;100322.75;2076347;28;20442;-70
2021/08/17 04:34:07;;;;;;;;;;;;;;;24.76;60.46;100323.59;2074563;28;20566;-71
2021/08/17 04:35:08;;;;;;;;;;;;;;;24.76;60.34;100324.44;2074573;28;19927;-70
2021/08/17 04:36:08;;;;;;;;;;;;;;;24.75;60.40;100317.22;2079962;28;19920;-71
2021/08/17 04:37:09;;;;;;;;;;;;;;;24.75;60.32;100325.50;2088986;28;20001;-71
2021/08/17 04:38:09;;;;;;;;;;;;;;;24.75;60.20;100324.66;2091135;28;19920;-71
2021/08/17 04:39:09;;;;;;;;;;;;;;;24.74;60.14;100326.56;2075143;28;19924;-71
2021/08/17 04:40:10;;;;;;;;;;;;;;;24.76;60.24;100327.19;2072936;28;19921;-71
2021/08/17 04:41:10;;;;;;;;;;;;;;;24.74;60.26;100326.56;2072675;28;19939;-71
2021/08/17 04:42:11;;;;;;;;;;;;;;;24.75;60.27;100324.66;2075266;28;19979;-71
2021/08/17 04:43:11;;;;;;;;;;;;;;;24.74;60.11;100326.56;2076081;28;19921;-71
2021/08/17 04:44:12;;;;;;;;;;;;;;;24.75;60.10;100327.41;2072835;28;19924;-71
2021/08/17 04:45:13;;;;;;;;;;;;;;;24.74;60.18;100329.31;2072626;28;19963;-71
2021/08/17 04:46:14;;;;;;;;;;;;;;;24.74;60.06;100329.31;2072712;28;19921;-71
2021/08/17 04:47:14;;;;;;;;;;;;;;;24.73;59.91;100335.84;2076270;28;19913;-70
2021/08/17 04:48:14;;;;;;;;;;;;;;;24.76;60.07;100334.63;2076913;28;19924;-71
2021/08/17 04:49:14;;;;;;;;;;;;;;;24.75;59.95;100333.78;2077023;28;19916;-70
2021/08/17 04:50:15;;;;;;;;;;;;;;;24.74;59.94;100332.06;2074694;28;19924;-70
2021/08/17 04:51:15;;;;;;;;;;;;;;;24.74;59.86;100328.44;2079379;28;19924;-70
2021/08/17 04:52:17;;;;;;;;;;;;;;;24.75;59.96;100332.91;2074890;28;19920;-71
2021/08/17 04:53:17;;;;;;;;;;;;;;;24.74;59.87;100332.06;2074912;28;20773;-71
2021/08/17 04:54:17;;;;;;;;;;;;;;;24.74;59.98;100332.06;2077075;28;20362;-71
2021/08/17 04:55:18;;;;;;;;;;;;;;;24.74;59.94;100333.94;2079606;28;19928;-71
2021/08/17 04:56:18;;;;;;;;;;;;;;;24.75;59.97;100339.28;2077538;28;21422;-71
2021/08/17 04:57:18;;;;;;;;;;;;;;;24.75;59.92;100335.69;2076868;28;19956;-71
2021/08/17 04:58:19;;;;;;;;;;;;;;;24.75;59.92;100336.53;2075383;28;20971;-71
2021/08/17 04:59:19;;;;;;;;;;;;;;;24.74;59.97;100340.34;2077793;28;19963;-70
2021/08/17 05:00:20;;;;;;;;;;;;;;;24.74;59.86;100345.84;2077346;28;19921;-70
2021/08/17 05:01:21;;;;;;;;;;;;;;;24.74;59.64;100340.34;2082027;28;20292;-71
2021/08/17 05:02:21;;;;;;;;;;;;;;;24.75;59.80;100342.03;2078406;28;19994;-71
2021/08/17 05:03:23;;;;;;;;;;;;;;;24.74;59.81;100347.72;2077802;28;20039;-71
2021/08/17 05:04:23;;;;;;;;;;;;;;;24.75;59.82;100338.44;2080051;28;19916;-72
2021/08/17 05:05:24;;;;;;;;;;;;;;;24.75;59.69;100343.94;2078388;28;20011;-71
2021/08/17 05:06:24;;;;;;;;;;;;;;;24.73;59.58;100346.88;2076256;28;19925;-71
2021/08/17 05:07:24;;;;;;;;;;;;;;;24.74;59.53;100347.72;2075130;28;19921;-70
2021/08/17 05:08:25;;;;;;;;;;;;;;;24.73;59.25;100349.63;2075768;28;19971;-71
2021/08/17 05:09:25;;;;;;;;;;;;;;;24.74;59.44;100348.59;2076402;28;19927;-71
2021/08/17 05:10:26;;;;;;;;;;;;;;;24.74;59.18;100354.13;2077928;28;20458;-71
2021/08/17 05:11:26;;;;;;;;;;;;;;;24.74;59.36;100348.59;2077562;28;19921;-70
2021/08/17 05:12:26;;;;;;;;;;;;;;;24.75;59.19;100354.97;2074068;28;20066;-70
2021/08/17 05:13:27;;;;;;;;;;;;;;;24.74;59.21;100340.34;2075010;28;19982;-71
2021/08/17 05:14:27;;;;;;;;;;;;;;;24.74;59.19;100350.47;2076543;28;20268;-70
2021/08/17 05:15:27;;;;;;;;;;;;;;;24.74;59.25;100347.72;2075608;28;19935;-71
2021/08/17 05:16:27;;;;;;;;;;;;;;;24.74;59.40;100345.84;2075645;28;19962;-70
2021/08/17 05:17:28;;;;;;;;;;;;;;;24.75;59.17;100352.22;2076251;28;20970;-70
2021/08/17 05:18:32;;;;;;;;;;;;;;;24.74;59.14;100347.72;2077500;28;20212;-70